createdAt,value
2018-02-11T00:03:33.893Z,0.40
2018-02-11T00:08:17.236Z,0.30
2018-02-11T00:13:01.164Z,0.40
2018-02-11T00:17:44.505Z,0.30
2018-02-11T00:22:27.812Z,0.40
2018-02-11T00:27:11.147Z,0.40
2018-02-11T00:31:55.266Z,0.50
2018-02-11T00:36:38.580Z,0.50
2018-02-11T00:41:21.966Z,0.50
2018-02-11T00:46:05.365Z,0.50
2018-02-11T00:50:48.718Z,0.50
2018-02-11T00:55:32.109Z,0.60
2018-02-11T01:00:16.191Z,0.70
2018-02-11T01:04:59.528Z,0.70
2018-02-11T01:09:42.868Z,0.70
2018-02-11T01:14:26.214Z,0.70
2018-02-11T01:19:09.582Z,0.70
2018-02-11T01:23:52.931Z,0.70
2018-02-11T01:28:36.257Z,0.70
2018-02-11T01:33:19.564Z,0.70
2018-02-11T01:38:02.879Z,0.80
2018-02-11T01:42:46.991Z,0.70
2018-02-11T01:47:30.343Z,0.70
2018-02-11T01:52:13.692Z,0.80
2018-02-11T01:56:57.035Z,0.80
2018-02-11T02:01:40.380Z,0.80
2018-02-11T02:06:23.724Z,0.80
2018-02-11T02:11:07.109Z,0.70
2018-02-11T02:15:50.465Z,0.70
2018-02-11T02:20:33.799Z,0.60
2018-02-11T02:25:17.094Z,0.60
2018-02-11T02:30:00.400Z,0.60
2018-02-11T02:34:43.734Z,0.70
2018-02-11T02:39:27.079Z,0.70
2018-02-11T02:44:10.398Z,0.70
2018-02-11T02:48:53.747Z,0.70
2018-02-11T02:53:37.119Z,0.70
2018-02-11T02:58:20.438Z,0.70
2018-02-11T03:03:03.799Z,0.80
2018-02-11T03:07:47.147Z,0.90
2018-02-11T03:12:30.495Z,0.80
2018-02-11T03:17:14.083Z,0.90
2018-02-11T03:21:57.432Z,0.80
2018-02-11T03:26:40.733Z,0.80
2018-02-11T03:31:24.857Z,0.90
2018-02-11T03:36:08.191Z,0.80
2018-02-11T03:40:51.918Z,0.90
2018-02-11T03:45:35.233Z,0.80
2018-02-11T03:50:18.573Z,0.80
2018-02-11T03:55:01.894Z,0.80
2018-02-11T03:59:45.239Z,0.70
2018-02-11T04:04:28.571Z,0.80
2018-02-11T04:09:12.690Z,0.80
2018-02-11T04:13:55.990Z,0.80
2018-02-11T04:18:40.083Z,0.90
2018-02-11T04:23:23.402Z,0.80
2018-02-11T04:28:06.766Z,0.90
2018-02-11T04:32:50.153Z,0.90
2018-02-11T04:37:34.320Z,0.90
2018-02-11T04:42:18.379Z,0.80
2018-02-11T04:47:02.466Z,0.60
2018-02-11T04:51:45.836Z,0.60
2018-02-11T04:56:29.180Z,0.40
2018-02-11T05:01:12.502Z,0.30
2018-02-11T05:05:55.835Z,0.10
2018-02-11T05:10:39.206Z,0.10
2018-02-11T05:15:22.549Z,0.10
2018-02-11T05:20:06.199Z,0.20
2018-02-11T05:24:49.556Z,0.10
2018-02-11T05:29:32.876Z,0.00
2018-02-11T05:34:16.179Z,0.00
2018-02-11T05:38:59.518Z,-0.20
2018-02-11T05:43:42.878Z,-0.40
2018-02-11T05:48:26.245Z,-0.50
2018-02-11T05:53:09.602Z,-0.50
2018-02-11T05:57:52.893Z,-0.50
2018-02-11T06:02:36.224Z,-0.50
2018-02-11T06:07:19.598Z,-0.60
2018-02-11T06:12:02.914Z,-0.60
2018-02-11T06:16:46.248Z,-0.60
2018-02-11T06:21:29.609Z,-0.60
2018-02-11T06:26:12.938Z,-0.50
2018-02-11T06:30:56.250Z,-0.50
2018-02-11T06:35:39.627Z,-0.30
2018-02-11T06:40:22.960Z,-0.30
2018-02-11T06:45:07.115Z,-0.40
2018-02-11T06:49:50.444Z,-0.50
2018-02-11T06:54:33.773Z,-0.60
2018-02-11T06:59:17.103Z,-0.70
2018-02-11T07:04:00.491Z,-0.80
2018-02-11T07:08:43.835Z,-0.70
2018-02-11T07:13:27.984Z,-0.60
2018-02-11T07:18:11.338Z,-0.60
2018-02-11T07:22:54.699Z,-0.50
2018-02-11T07:27:38.869Z,0.00
2018-02-11T07:32:22.323Z,0.00
2018-02-11T07:37:06.486Z,0.50
2018-02-11T07:41:49.871Z,0.50
2018-02-11T07:46:33.639Z,0.80
2018-02-11T07:51:17.067Z,1.00
2018-02-11T07:56:00.405Z,1.20
2018-02-11T08:00:44.393Z,1.30
2018-02-11T08:05:28.015Z,1.30
2018-02-11T08:10:12.130Z,1.10
2018-02-11T08:14:55.994Z,1.00
2018-02-11T08:19:39.454Z,1.10
2018-02-11T08:24:22.771Z,1.30
2018-02-11T08:29:06.105Z,1.50
2018-02-11T08:33:49.424Z,1.80
2018-02-11T08:38:32.866Z,2.00
2018-02-11T08:43:16.486Z,2.30
2018-02-11T08:47:59.970Z,2.50
2018-02-11T08:52:43.433Z,2.60
2018-02-11T08:57:27.697Z,2.90
2018-02-11T09:02:11.044Z,2.90
2018-02-11T09:06:54.454Z,2.80
2018-02-11T09:11:37.871Z,2.80
2018-02-11T09:16:21.212Z,3.10
2018-02-11T09:21:05.357Z,3.50
2018-02-11T09:25:49.579Z,3.70
2018-02-11T09:30:33.114Z,3.60
2018-02-11T09:35:16.545Z,3.40
2018-02-11T09:40:00.766Z,3.50
2018-02-11T09:44:44.213Z,3.50
2018-02-11T09:49:27.749Z,3.70
2018-02-11T09:54:11.175Z,3.80
2018-02-11T09:58:57.128Z,4.20
2018-02-11T10:03:41.596Z,4.30
2018-02-11T10:08:25.359Z,3.90
2018-02-11T10:13:08.745Z,3.80
2018-02-11T10:17:52.234Z,3.60
2018-02-11T10:22:35.696Z,4.00
2018-02-11T10:27:20.010Z,3.80
2018-02-11T10:32:04.265Z,4.10
2018-02-11T10:41:46.556Z,3.80
2018-02-11T10:46:31.102Z,3.90
2018-02-11T10:51:17.545Z,3.70
2018-02-11T10:56:25.577Z,3.70
2018-02-11T11:01:16.040Z,3.80
2018-02-11T11:05:59.697Z,4.10
2018-02-11T11:10:43.941Z,4.00
2018-02-11T11:15:28.115Z,4.20
2018-02-11T11:20:12.303Z,4.20
2018-02-11T11:24:55.941Z,4.20
2018-02-11T11:29:39.318Z,4.20
2018-02-11T11:34:22.655Z,4.50
2018-02-11T11:39:06.278Z,4.80
2018-02-11T11:43:49.691Z,4.70
2018-02-11T11:48:33.826Z,4.40
2018-02-11T11:53:17.230Z,4.40
2018-02-11T11:58:00.585Z,4.30
2018-02-11T12:02:46.450Z,4.20
2018-02-11T12:07:29.956Z,4.20
2018-02-11T12:12:13.280Z,4.40
2018-02-11T12:16:56.655Z,4.50
2018-02-11T12:21:43.761Z,4.70
2018-02-11T12:26:27.374Z,4.70
2018-02-11T12:31:10.899Z,5.00
2018-02-11T12:35:54.348Z,4.90
2018-02-11T12:40:53.794Z,5.10
2018-02-11T12:45:41.774Z,5.10
2018-02-11T12:50:25.221Z,4.90
2018-02-11T12:55:09.324Z,4.80
2018-02-11T12:59:54.630Z,4.70
2018-02-11T13:04:39.181Z,4.80
2018-02-11T13:09:22.455Z,4.80
2018-02-11T13:14:05.948Z,4.60
2018-02-11T13:18:49.263Z,4.60
2018-02-11T13:23:32.602Z,4.60
2018-02-11T13:28:19.993Z,4.70
2018-02-11T13:33:03.339Z,4.60
2018-02-11T13:37:46.692Z,4.70
2018-02-11T13:42:30.072Z,4.40
2018-02-11T13:47:14.279Z,4.20
2018-02-11T13:51:57.642Z,4.20
2018-02-11T13:56:41.262Z,4.20
2018-02-11T14:01:25.506Z,4.20
2018-02-11T14:06:08.846Z,4.10
2018-02-11T14:10:53.110Z,4.00
2018-02-11T14:15:36.747Z,4.10
2018-02-11T14:20:20.082Z,3.90
2018-02-11T14:25:03.441Z,3.70
2018-02-11T14:29:46.839Z,3.20
2018-02-11T14:34:30.188Z,3.00
2018-02-11T14:39:14.578Z,2.70
2018-02-11T14:43:57.977Z,2.70
2018-02-11T14:48:41.312Z,2.60
2018-02-11T14:53:24.669Z,2.30
2018-02-11T14:58:08.017Z,2.00
2018-02-11T15:02:54.465Z,1.80
2018-02-11T15:07:39.317Z,1.80
2018-02-11T15:12:23.536Z,1.70
2018-02-11T15:17:06.876Z,1.70
2018-02-11T15:21:50.227Z,1.70
2018-02-11T15:26:33.822Z,1.70
2018-02-11T15:31:17.123Z,1.60
2018-02-11T15:36:01.275Z,1.70
2018-02-11T15:40:44.611Z,1.60
2018-02-11T15:45:29.016Z,1.60
2018-02-11T15:50:12.380Z,1.60
2018-02-11T15:54:55.772Z,1.60
2018-02-11T15:59:39.133Z,1.60
2018-02-11T16:04:22.500Z,1.60
2018-02-11T16:09:06.090Z,1.60
2018-02-11T16:13:49.577Z,1.60
2018-02-11T16:18:32.950Z,1.70
2018-02-11T16:23:16.370Z,1.80
2018-02-11T16:27:59.810Z,1.80
2018-02-11T16:32:43.450Z,1.80
2018-02-11T16:37:26.750Z,1.90
2018-02-11T16:42:11.146Z,2.00
2018-02-11T16:46:54.540Z,2.10
2018-02-11T16:51:53.311Z,2.20
2018-02-11T16:56:40.108Z,2.10
2018-02-11T17:01:24.431Z,2.00
2018-02-11T17:06:07.738Z,2.00
2018-02-11T17:10:51.046Z,2.10
2018-02-11T17:15:34.433Z,2.20
2018-02-11T17:20:17.881Z,2.20
2018-02-11T17:25:01.214Z,2.20
2018-02-11T17:29:44.501Z,2.20
2018-02-11T17:34:28.638Z,2.20
2018-02-11T17:39:11.935Z,2.20
2018-02-11T17:43:55.295Z,2.20
2018-02-11T17:48:38.659Z,2.20
2018-02-11T17:53:21.954Z,2.20
2018-02-11T17:58:05.359Z,2.20
2018-02-11T18:02:49.337Z,2.20
2018-02-11T18:07:32.956Z,2.20
2018-02-11T18:12:17.927Z,2.20
2018-02-11T18:17:01.371Z,2.20
2018-02-11T18:21:46.159Z,2.30
2018-02-11T18:26:30.324Z,2.30
2018-02-11T18:31:13.747Z,2.20
2018-02-11T18:35:58.168Z,2.20
2018-02-11T18:40:41.678Z,2.20
2018-02-11T18:45:25.349Z,2.20
2018-02-11T18:50:09.278Z,2.20
2018-02-11T18:54:53.034Z,2.20
2018-02-11T18:59:36.480Z,2.20
2018-02-11T19:04:19.894Z,2.20
2018-02-11T19:09:03.371Z,2.30
2018-02-11T19:13:46.964Z,2.30
2018-02-11T19:18:30.362Z,2.30
2018-02-11T19:23:13.832Z,2.20
2018-02-11T19:27:57.269Z,2.20
2018-02-11T19:32:40.707Z,2.10
2018-02-11T19:37:24.087Z,2.10
2018-02-11T19:42:07.909Z,2.10
2018-02-11T19:46:51.395Z,2.10
2018-02-11T19:51:35.562Z,2.20
2018-02-11T19:56:19.201Z,2.20
2018-02-11T20:01:02.575Z,2.20
2018-02-11T20:05:48.267Z,2.20
2018-02-11T20:10:33.605Z,2.20
2018-02-11T20:15:17.964Z,2.20
2018-02-11T20:20:02.212Z,2.20
2018-02-11T20:24:45.659Z,2.10
2018-02-11T20:29:29.949Z,2.20
2018-02-11T20:34:14.976Z,2.20
2018-02-11T20:38:59.547Z,2.20
2018-02-11T20:43:43.091Z,2.30
2018-02-11T20:48:26.536Z,2.30
2018-02-11T20:53:10.163Z,2.30
2018-02-11T20:57:54.375Z,2.30
2018-02-11T21:02:38.585Z,2.20
2018-02-11T21:07:21.970Z,2.20
2018-02-11T21:12:05.621Z,2.30
2018-02-11T21:16:51.542Z,2.20
2018-02-11T21:21:34.908Z,2.30
2018-02-11T21:26:18.994Z,2.20
2018-02-11T21:31:03.409Z,2.20
2018-02-11T21:35:46.889Z,2.20
2018-02-11T21:40:30.235Z,2.30
2018-02-11T21:45:13.727Z,2.30
2018-02-11T21:49:57.437Z,2.30
2018-02-11T21:54:40.837Z,2.30
2018-02-11T21:59:24.323Z,2.30
2018-02-11T22:04:07.885Z,2.20
2018-02-11T22:08:51.263Z,2.10
2018-02-11T22:13:34.661Z,1.90
2018-02-11T22:18:18.078Z,1.90
2018-02-11T22:23:01.581Z,1.70
2018-02-11T22:27:45.077Z,1.60
2018-02-11T22:32:28.577Z,1.60
2018-02-11T22:37:12.319Z,1.60
2018-02-11T22:41:55.730Z,1.60
2018-02-11T22:46:39.082Z,1.50
2018-02-11T22:51:22.580Z,1.40
2018-02-11T22:56:06.063Z,1.40
2018-02-11T23:00:49.506Z,1.30
2018-02-11T23:05:32.877Z,1.40
2018-02-11T23:10:16.970Z,1.30
2018-02-11T23:15:00.345Z,1.30
2018-02-11T23:19:51.363Z,1.10
2018-02-11T23:24:34.726Z,1.00
2018-02-11T23:29:18.007Z,1.00
2018-02-11T23:34:01.324Z,0.90
2018-02-11T23:38:45.597Z,0.80
2018-02-11T23:43:29.728Z,0.80
2018-02-11T23:48:13.134Z,0.80
2018-02-11T23:52:56.460Z,0.80
2018-02-11T23:57:39.909Z,0.70
